Mussey Grade (971, 6917, MOR1) Station Data

Red Flag Warning: No
Fire Weather Zone: 250
SDGE Region: Ramona
Lat/Lon: 32.986/-116.908

Observations

Time Wind Speed/Gust Temp(F) RH Fuel Moist Fuel Temp(F) Dewpt(F) Tmax(F) Tmin(F) Accum Precip 10-min Precip SL Press(mb)
4/30 12:00am 39 5 G 8 62° 23% - - 24° 80.5° 58.9° - - -
4/29 11:50pm 40 5 G 8 62° 23% - - 24° 80.5° 58.9° - - -
4/29 11:40pm 47 5 G 7 62° 23% - - 24° 80.5° 58.9° - - -
4/29 11:30pm 60 6 G 7 61° 22% - - 23° 80.5° 58.9° - - -
4/29 11:20pm 60 3 G 5 60° 23% - - 22° 80.5° 58.9° - - -
4/29 11:10pm 52 2 G 3 59° 23% - - 21° 80.5° 58.9° - - -
4/29 11:00pm 58 2 G 3 59° 22% - - 20° 80.5° 58.9° - - -
4/29 10:50pm 32 1 G 3 60° 21% - - 20° 80.5° 59° - - -
4/29 10:40pm 71 3 G 5 62° 19% - - 19° 80.5° 59° - - -
4/29 10:30pm 51 3 G 5 62° 19% - - 19° 80.5° 59° - - -
4/29 10:20pm 56 3 G 5 61° 19% - - 19° 80.5° 59° - - -
4/29 10:10pm 56 4 G 6 61° 19% - - 19° 80.5° 59° - - -
4/29 10:00pm 59 3 G 4 61° 20% - - 19° 80.5° 59° - - -
4/29 9:50pm 72 3 G 4 62° 19% - - 19° 80.5° 59° - - -
4/29 9:40pm 35 2 G 3 63° 17% - - 18° 80.5° 59° - - -
4/29 9:30pm 37 3 G 6 63° 17% - - 18° 80.5° 59° - - -
4/29 9:20pm 33 1 G 3 64° 16% - - 18° 80.5° 59° - - -
4/29 9:10pm 37 2 G 3 64° 16% - - 17° 80.5° 59° - - -
4/29 9:00pm 40 2 G 4 64° 16% - - 17° 80.5° 59° - - -
4/29 8:50pm 30 2 G 4 65° 15% - - 16° 80.5° 59° - - -
4/29 8:40pm 7 2 G 4 65° 15% - - 16° 80.5° 59° - - -
4/29 8:30pm 40 1 G 4 65° 17% - - 20° 80.5° 59° - - -
4/29 8:20pm 43 2 G 4 65° 20% - - 23° 80.5° 59° - - -
4/29 8:10pm 45 2 G 3 64° 22% - - 24° 80.5° 59° - - -
4/29 8:00pm 55 2 G 3 65° 20% - - 23° 80.5° 59° - - -
4/29 7:50pm 62 1 G 2 66° 20% - - 23° 80.5° 59° - - -
4/29 7:40pm 43 0 G 2 67° 18% - - 22° 80.5° 59° - - -
4/29 7:30pm 305 1 G 4 67° 17% - - 22° 80.5° 59° - - -
4/29 7:20pm 241 1 G 3 68° 18% - - 23° 80.5° 59° - - -
4/29 7:10pm 214 2 G 4 69° 20% - - 26° 80.5° 59° - - -
4/29 7:00pm 238 3 G 6 69° 19% - - 25° 80.5° 59° - - -
4/29 6:50pm 236 4 G 8 70° 18% - - 25° 80.5° 59° - - -
4/29 6:40pm 241 5 G 11 70° 18% - - 24° 80.5° 59° - - -
4/29 6:30pm 243 4 G 9 71° 16% - - 23° 80.5° 59° - - -
4/29 6:20pm 249 3 G 7 72° 14% - - 21° 80.5° 59° - - -
4/29 6:10pm 272 4 G 11 72° 14% - - 20° 80.5° 59° - - -
4/29 6:00pm 276 4 G 10 73° 14% - - 20° 80.5° 59° - - -
4/29 5:50pm 272 4 G 10 73° 14% - - 21° 80.5° 59° - - -
4/29 5:40pm 265 5 G 9 74° 13% - - 21° 80.5° 59° - - -
4/29 5:30pm 273 4 G 11 74° 14% - - 21° 80.5° 59° - - -
4/29 5:20pm 273 5 G 11 75° 14% - - 22° 80.5° 59° - - -
4/29 5:10pm 262 4 G 9 76° 13% - - 21° 80.5° 59° - - -
4/29 5:00pm 284 4 G 10 76° 12% - - 20° 80.5° 59° - - -
4/29 4:50pm 268 4 G 9 77° 12% - - 20° 80.5° 59° - - -
4/29 4:40pm 263 4 G 10 77° 12% - - 20° 80.5° 59° - - -
4/29 4:30pm 276 5 G 10 77° 12% - - 20° 80.5° 59° - - -
4/29 4:20pm 241 8 G 15 77° 12% - - 21° 80.5° 59° - - -
4/29 4:10pm 234 5 G 13 77° 12% - - 20° 80.5° 59° - - -
4/29 4:00pm 238 6 G 10 78° 12% - - 20° 80.5° 59° - - -
4/29 3:50pm 240 5 G 12 78° 12% - - 20° 80.5° 59° - - -
4/29 3:40pm 244 7 G 13 77° 12% - - 20° 80.5° 59° - - -
4/29 3:30pm 253 6 G 12 78° 12% - - 20° 80.5° 59° - - -
4/29 3:20pm 262 3 G 9 78° 11% - - 19° 80.5° 59° - - -
4/29 3:10pm 246 6 G 11 77° 12% - - 20° 80.5° 59° - - -
4/29 3:00pm 269 5 G 10 77° 12% - - 20° 80.5° 59° - - -
4/29 2:50pm 295 5 G 10 78° 11% - - 18° 80.5° 59° - - -
4/29 2:40pm 53 3 G 10 79° 8% - - 11° 80° 59° - - -
4/29 2:30pm 222 3 G 7 78° 7% - - 10° 78.9° 59° - - -
4/29 2:20pm 59 6 G 13 78° 8% - - 10° 78.3° 59° - - -
4/29 2:10pm 36 5 G 18 78° 8% - - 10° 78.2° 59° - - -
4/29 2:00pm 58 4 G 10 78° 8% - - 10° 78.2° 59° - - -
4/29 1:50pm 50 4 G 10 77° 8% - - 10° 78° 59° - - -
4/29 1:40pm 72 5 G 11 77° 8% - - 10° 78° 59° - - -
4/29 1:30pm 72 3 G 9 77° 7% - - 78° 59° - - -
4/29 1:20pm 55 5 G 13 77° 7% - - 78° 59° - - -
4/29 1:10pm 130 3 G 10 77° 7% - - 78° 59° - - -
4/29 1:00pm 72 5 G 12 76° 7% - - 77° 59° - - -
4/29 12:50pm 21 6 G 14 75° 7% - - 76.4° 59° - - -
4/29 12:40pm 77 5 G 13 76° 7% - - 76.4° 59° - - -
4/29 12:30pm 91 5 G 12 75° 8% - - 10° 76.4° 59° - - -
4/29 12:20pm 64 7 G 14 75° 8% - - 76° 59° - - -
4/29 12:10pm 71 8 G 16 75° 8% - - 75.8° 59° - - -
4/29 12:00pm 60 6 G 15 75° 8% - - 10° 75.8° 59° - - -
4/29 11:50am 78 4 G 12 75° 8% - - 10° 75.8° 59° - - -
4/29 11:40am 84 5 G 13 74° 8% - - 75.2° 59° - - -
4/29 11:30am 45 6 G 13 74° 8% - - 74.9° 59° - - -
4/29 11:20am 61 5 G 15 74° 8% - - 74.9° 59° - - -
4/29 11:10am 58 6 G 14 74° 7% - - 74.7° 59° - - -
4/29 11:00am 52 7 G 16 74° 7% - - 74.7° 59° - - -
4/29 10:50am 93 3 G 9 74° 8% - - 74.4° 59° - - -
4/29 10:40am 22 4 G 10 73° 8% - - 73.9° 59° - - -
4/29 10:30am 65 6 G 14 73° 8% - - 73.7° 59° - - -
4/29 10:20am 70 5 G 12 73° 8% - - 73.7° 59° - - -
4/29 10:10am 54 6 G 15 72° 8% - - 72.8° 59° - - -
4/29 10:00am 54 7 G 17 71° 8% - - 72.1° 59° - - -
4/29 9:50am 73 7 G 15 72° 9% - - 72.1° 59° - - -
4/29 9:40am 70 7 G 14 70° 9% - - 10° 71.5° 59° - - -
4/29 9:30am 52 9 G 18 69° 9% - - 69.9° 59° - - -
4/29 9:20am 55 10 G 18 69° 9% - - 69.3° 59° - - -
4/29 9:10am 50 11 G 20 69° 9% - - 69.2° 59° - - -
4/29 9:00am 51 9 G 17 69° 9% - - 69.2° 59° - - -
4/29 8:50am 51 10 G 18 68° 9% - - 68.5° 59° - - -
4/29 8:40am 43 9 G 18 68° 9% - - 68.1° 59° - - -
4/29 8:30am 65 7 G 19 67° 10% - - 67.8° 59° - - -
4/29 8:20am 81 5 G 12 67° 11% - - 11° 67.2° 59° - - -
4/29 8:10am 84 7 G 13 66° 11% - - 11° 66.6° 59° - - -
4/29 8:00am 82 6 G 13 66° 12% - - 11° 66.1° 59° - - -
4/29 7:50am 85 7 G 14 65° 12% - - 10° 65.6° 59° - - -
4/29 7:40am 85 6 G 13 65° 11% - - 10° 65.6° 59° - - -
4/29 7:30am 60 5 G 12 64° 12% - - 10° 65.6° 59° - - -
4/29 7:20am 76 5 G 12 64° 12% - - 10° 65.6° 59° - - -
4/29 7:10am 79 6 G 13 63° 12% - - 10° 65.6° 59° - - -
4/29 7:00am 73 3 G 9 63° 12% - - 10° 65.6° 59° - - -
4/29 6:50am 65 7 G 14 62° 12% - - 65.6° 59° - - -
4/29 6:40am 57 7 G 13 62° 12% - - 65.6° 59° - - -
4/29 6:30am 69 6 G 16 62° 12% - - 65.6° 59° - - -
4/29 6:20am 77 5 G 13 61° 12% - - 65.6° 59° - - -
4/29 6:10am 85 3 G 8 61° 12% - - 65.6° 59° - - -
4/29 6:00am 63 3 G 9 62° 12% - - 65.6° 59° - - -
4/29 5:50am 57 3 G 14 62° 12% - - 65.6° 59° - - -
4/29 5:40am 46 4 G 16 63° 12% - - 65.6° 59° - - -
4/29 5:30am 55 4 G 13 62° 12% - - 65.6° 59° - - -
4/29 5:20am 56 6 G 13 62° 12% - - 65.6° 59° - - -
4/29 5:10am 81 5 G 14 63° 12% - - 10° 65.6° 59° - - -
4/29 5:00am 67 7 G 14 63° 12% - - 10° 65.6° 59° - - -
4/29 4:50am 53 4 G 8 63° 12% - - 10° 65.6° 59° - - -
4/29 4:40am 57 4 G 11 63° 12% - - 10° 65.6° 59° - - -
4/29 4:30am 82 4 G 10 63° 13% - - 11° 65.6° 59° - - -
4/29 4:20am 110 2 G 6 63° 13% - - 11° 65.6° 59° - - -
4/29 4:10am 55 5 G 12 64° 12% - - 11° 65.6° 59° - - -
4/29 4:00am 60 5 G 9 64° 12% - - 11° 65.6° 59° - - -
4/29 3:50am 70 4 G 10 64° 13% - - 11° 65.6° 59° - - -
4/29 3:40am 62 4 G 10 64° 12% - - 11° 65.6° 59° - - -
4/29 3:30am 52 7 G 16 65° 12% - - 11° 65.6° 59° - - -
4/29 3:20am 74 5 G 12 65° 12% - - 11° 65.6° 59° - - -
4/29 3:10am 63 5 G 12 65° 12% - - 11° 65.6° 59° - - -
4/29 3:00am 68 6 G 14 65° 12% - - 11° 65.6° 59° - - -
4/29 2:50am 67 6 G 15 65° 12% - - 11° 65.6° 59° - - -
4/29 2:40am 69 6 G 12 65° 12% - - 11° 65.6° 59° - - -
4/29 2:30am 88 5 G 13 65° 12% - - 11° 65.2° 59° - - -
4/29 2:20am 90 4 G 14 64° 13% - - 12° 64.9° 59° - - -
4/29 2:10am 267 3 G 7 64° 13% - - 13° 64.3° 59° - - -
4/29 2:00am 349 3 G 7 64° 14% - - 13° 64.3° 59° - - -
4/29 1:50am 282 2 G 5 62° 16% - - 16° 63.8° 59° - - -
4/29 1:40am 255 1 G 4 62° 19% - - 19° 63.8° 59° - - -
4/29 1:30am 20 2 G 7 63° 19% - - 19° 63.8° 59° - - -
4/29 1:20am 20 2 G 4 63° 20% - - 21° 63.8° 59° - - -
4/29 1:10am 39 2 G 9 63° 21% - - 22° 63.8° 59° - - -
4/29 1:00am 84 3 G 7 63° 22% - - 23° 63.8° 59° - - -
4/29 12:50am 51 2 G 8 63° 22% - - 24° 63.8° 59° - - -
4/29 12:40am 69 3 G 8 64° 23% - - 26° 63.8° 59° - - -
4/29 12:30am 161 2 G 5 62° 29% - - 29° 63.6° 59° - - -
4/29 12:20am 28 1 G 4 61° 39% - - 35° 61.3° 59° - - -
4/29 12:10am 55 2 G 4 59° 44% - - 37° 59.7° 59° - - -
4/29 12:00am 49 2 G 4 60° 44% - - 38° 75.1° 52.5° - - -
4/28 11:50pm 52 3 G 5 60° 42% - - 37° 75.1° 52.5° - - -
4/28 11:40pm 46 3 G 6 60° 43% - - 38° 75.1° 52.5° - - -
4/28 11:30pm 52 4 G 5 60° 44% - - 38° 75.1° 52.5° - - -
4/28 11:20pm 64 4 G 6 59° 45% - - 37° 75.1° 52.5° - - -
4/28 11:10pm 53 2 G 4 58° 46% - - 38° 75.1° 52.5° - - -
4/28 11:00pm 28 1 G 3 59° 45% - - 38° 75.1° 52.5° - - -
4/28 10:50pm 50 1 G 4 58° 45% - - 37° 75.1° 52.5° - - -
4/28 10:40pm 62 3 G 5 59° 44% - - 37° 75.1° 52.5° - - -
4/28 10:30pm 62 3 G 5 59° 44% - - 37° 75.1° 52.5° - - -
4/28 10:20pm 60 2 G 3 58° 45% - - 37° 75.1° 52.5° - - -
4/28 10:10pm 74 3 G 4 59° 42% - - 36° 75.1° 52.5° - - -
4/28 10:00pm 58 3 G 6 60° 42% - - 37° 75.1° 52.5° - - -
4/28 9:50pm 62 3 G 4 59° 43% - - 37° 75.1° 52.5° - - -
4/28 9:40pm 62 2 G 4 59° 43% - - 37° 75.1° 52.5° - - -
4/28 9:30pm 51 1 G 2 59° 42% - - 37° 75.1° 52.5° - - -
4/28 9:20pm 56 1 G 3 60° 42% - - 36° 75.1° 52.5° - - -
4/28 9:10pm 52 2 G 3 60° 41% - - 36° 75.1° 52.5° - - -
4/28 9:00pm 43 3 G 5 60° 39% - - 35° 75.1° 52.5° - - -
4/28 8:50pm 55 4 G 5 60° 39% - - 35° 75.1° 52.5° - - -
4/28 8:40pm 51 2 G 5 60° 40% - - 36° 75.1° 52.5° - - -
4/28 8:30pm 53 1 G 2 61° 40% - - 36° 75.1° 52.5° - - -
4/28 8:20pm 45 1 G 2 61° 39% - - 36° 75.1° 52.5° - - -
4/28 8:10pm 59 2 G 3 62° 38% - - 36° 75.1° 52.5° - - -
4/28 8:00pm 233 1 G 3 62° 36% - - 35° 75.1° 52.5° - - -
4/28 7:50pm 150 0 G 2 63° 35% - - 35° 75.1° 52.5° - - -
4/28 7:40pm 158 1 G 2 63° 35% - - 35° 75.1° 52.5° - - -
4/28 7:30pm 225 1 G 5 64° 34% - - 34° 75.1° 52.5° - - -
4/28 7:20pm 251 2 G 5 64° 32% - - 34° 75.1° 52.5° - - -
4/28 7:10pm 305 2 G 6 65° 30% - - 33° 75.1° 52.5° - - -
4/28 7:00pm 256 2 G 6 66° 31% - - 35° 75.1° 52.5° - - -
4/28 6:50pm 285 2 G 5 66° 32% - - 36° 75.1° 52.5° - - -
4/28 6:40pm 249 2 G 5 67° 34% - - 37° 75.1° 52.5° - - -
4/28 6:30pm 248 4 G 8 67° 33% - - 37° 75.1° 52.5° - - -
4/28 6:20pm 263 3 G 7 68° 31% - - 36° 75.1° 52.5° - - -
4/28 6:10pm 266 2 G 7 68° 29% - - 35° 75.1° 52.5° - - -
4/28 6:00pm 278 3 G 7 69° 27% - - 34° 75.1° 52.5° - - -